sensor_id;sensor_type;location;lat;lon;timestamp;P1;durP1;ratioP1;P2;durP2;ratioP2
45650;SDS011;31365;48.858;8.530;2023-03-01T00:01:59;8.70;;;7.47;;
45650;SDS011;31365;48.858;8.530;2023-03-01T00:04:28;9.23;;;8.20;;
45650;SDS011;31365;48.858;8.530;2023-03-01T00:06:56;9.20;;;8.23;;
45650;SDS011;31365;48.858;8.530;2023-03-01T00:09:27;8.63;;;7.73;;
45650;SDS011;31365;48.858;8.530;2023-03-01T00:11:56;8.57;;;7.60;;
45650;SDS011;31365;48.858;8.530;2023-03-01T00:14:25;7.57;;;6.87;;
45650;SDS011;31365;48.858;8.530;2023-03-01T00:16:54;7.83;;;7.03;;
45650;SDS011;31365;48.858;8.530;2023-03-01T00:19:22;8.07;;;7.27;;
45650;SDS011;31365;48.858;8.530;2023-03-01T00:21:51;7.83;;;7.00;;
45650;SDS011;31365;48.858;8.530;2023-03-01T00:24:19;8.37;;;7.57;;
45650;SDS011;31365;48.858;8.530;2023-03-01T00:26:49;7.63;;;6.87;;
45650;SDS011;31365;48.858;8.530;2023-03-01T00:29:25;9.17;;;7.67;;
45650;SDS011;31365;48.858;8.530;2023-03-01T00:31:55;9.50;;;7.50;;
45650;SDS011;31365;48.858;8.530;2023-03-01T00:34:25;9.80;;;7.60;;
45650;SDS011;31365;48.858;8.530;2023-03-01T00:36:55;8.77;;;7.17;;
45650;SDS011;31365;48.858;8.530;2023-03-01T00:39:31;11.30;;;7.60;;
45650;SDS011;31365;48.858;8.530;2023-03-01T00:42:02;7.73;;;6.90;;
45650;SDS011;31365;48.858;8.530;2023-03-01T00:44:31;7.97;;;7.20;;
45650;SDS011;31365;48.858;8.530;2023-03-01T00:47:00;10.53;;;7.87;;
45650;SDS011;31365;48.858;8.530;2023-03-01T00:49:30;8.80;;;7.27;;
45650;SDS011;31365;48.858;8.530;2023-03-01T00:51:59;8.47;;;7.03;;
45650;SDS011;31365;48.858;8.530;2023-03-01T00:54:28;8.30;;;6.90;;
45650;SDS011;31365;48.858;8.530;2023-03-01T00:56:56;8.73;;;7.47;;
45650;SDS011;31365;48.858;8.530;2023-03-01T00:59:27;8.97;;;7.70;;
45650;SDS011;31365;48.858;8.530;2023-03-01T01:01:56;8.63;;;7.40;;
45650;SDS011;31365;48.858;8.530;2023-03-01T01:04:27;8.67;;;7.60;;
45650;SDS011;31365;48.858;8.530;2023-03-01T01:06:56;8.70;;;6.93;;
45650;SDS011;31365;48.858;8.530;2023-03-01T01:09:25;8.87;;;7.97;;
45650;SDS011;31365;48.858;8.530;2023-03-01T01:11:54;8.87;;;7.97;;
45650;SDS011;31365;48.858;8.530;2023-03-01T01:14:22;10.00;;;8.33;;
45650;SDS011;31365;48.858;8.530;2023-03-01T01:16:52;9.43;;;8.37;;
45650;SDS011;31365;48.858;8.530;2023-03-01T01:19:22;11.40;;;8.73;;
45650;SDS011;31365;48.858;8.530;2023-03-01T01:21:53;9.77;;;8.50;;
45650;SDS011;31365;48.858;8.530;2023-03-01T01:24:22;11.07;;;8.43;;
45650;SDS011;31365;48.858;8.530;2023-03-01T01:26:50;10.33;;;8.50;;
45650;SDS011;31365;48.858;8.530;2023-03-01T01:29:18;9.63;;;8.63;;
45650;SDS011;31365;48.858;8.530;2023-03-01T01:31:48;8.80;;;7.97;;
45650;SDS011;31365;48.858;8.530;2023-03-01T01:34:18;11.27;;;9.13;;
45650;SDS011;31365;48.858;8.530;2023-03-01T01:36:49;9.80;;;8.77;;
45650;SDS011;31365;48.858;8.530;2023-03-01T01:39:20;10.80;;;8.97;;
45650;SDS011;31365;48.858;8.530;2023-03-01T01:41:49;10.13;;;8.40;;
45650;SDS011;31365;48.858;8.530;2023-03-01T01:44:19;9.90;;;8.10;;
45650;SDS011;31365;48.858;8.530;2023-03-01T01:46:51;11.17;;;8.80;;
45650;SDS011;31365;48.858;8.530;2023-03-01T01:49:28;12.27;;;9.40;;
45650;SDS011;31365;48.858;8.530;2023-03-01T01:52:07;10.30;;;8.60;;
45650;SDS011;31365;48.858;8.530;2023-03-01T01:54:42;10.77;;;9.03;;
45650;SDS011;31365;48.858;8.530;2023-03-01T01:57:14;10.27;;;8.40;;
45650;SDS011;31365;48.858;8.530;2023-03-01T01:59:48;11.40;;;9.00;;
45650;SDS011;31365;48.858;8.530;2023-03-01T02:02:22;11.87;;;9.10;;
45650;SDS011;31365;48.858;8.530;2023-03-01T02:04:55;11.53;;;8.87;;
45650;SDS011;31365;48.858;8.530;2023-03-01T02:07:36;10.73;;;9.00;;
45650;SDS011;31365;48.858;8.530;2023-03-01T02:10:10;9.77;;;8.77;;
45650;SDS011;31365;48.858;8.530;2023-03-01T02:12:38;9.90;;;8.90;;
45650;SDS011;31365;48.858;8.530;2023-03-01T02:15:08;9.40;;;8.37;;
45650;SDS011;31365;48.858;8.530;2023-03-01T02:17:38;9.20;;;7.93;;
45650;SDS011;31365;48.858;8.530;2023-03-01T02:20:10;10.13;;;8.87;;
45650;SDS011;31365;48.858;8.530;2023-03-01T02:22:54;10.67;;;9.10;;
45650;SDS011;31365;48.858;8.530;2023-03-01T02:25:26;11.20;;;9.57;;
45650;SDS011;31365;48.858;8.530;2023-03-01T02:28:05;10.70;;;8.67;;
45650;SDS011;31365;48.858;8.530;2023-03-01T02:30:41;9.87;;;8.73;;
45650;SDS011;31365;48.858;8.530;2023-03-01T02:33:26;10.40;;;8.77;;
45650;SDS011;31365;48.858;8.530;2023-03-01T02:36:00;9.23;;;8.23;;
45650;SDS011;31365;48.858;8.530;2023-03-01T02:38:33;10.90;;;9.13;;
45650;SDS011;31365;48.858;8.530;2023-03-01T02:41:02;11.03;;;8.67;;
45650;SDS011;31365;48.858;8.530;2023-03-01T02:43:34;11.30;;;8.17;;
45650;SDS011;31365;48.858;8.530;2023-03-01T02:46:06;9.30;;;8.33;;
45650;SDS011;31365;48.858;8.530;2023-03-01T02:48:41;8.77;;;7.87;;
45650;SDS011;31365;48.858;8.530;2023-03-01T02:51:17;9.63;;;8.20;;
45650;SDS011;31365;48.858;8.530;2023-03-01T02:54:02;9.20;;;8.27;;
45650;SDS011;31365;48.858;8.530;2023-03-01T02:56:43;9.63;;;8.60;;
45650;SDS011;31365;48.858;8.530;2023-03-01T02:59:18;9.60;;;7.90;;
45650;SDS011;31365;48.858;8.530;2023-03-01T03:01:51;9.53;;;7.57;;
45650;SDS011;31365;48.858;8.530;2023-03-01T03:04:20;9.90;;;8.80;;
45650;SDS011;31365;48.858;8.530;2023-03-01T03:06:49;9.07;;;8.07;;
45650;SDS011;31365;48.858;8.530;2023-03-01T03:09:19;11.65;;;10.45;;
45650;SDS011;31365;48.858;8.530;2023-03-01T03:11:48;8.60;;;7.80;;
45650;SDS011;31365;48.858;8.530;2023-03-01T03:14:17;9.37;;;8.37;;
45650;SDS011;31365;48.858;8.530;2023-03-01T03:16:48;9.60;;;8.57;;
45650;SDS011;31365;48.858;8.530;2023-03-01T03:19:19;11.75;;;10.65;;
45650;SDS011;31365;48.858;8.530;2023-03-01T03:21:47;12.10;;;10.95;;
45650;SDS011;31365;48.858;8.530;2023-03-01T03:24:16;11.45;;;10.35;;
45650;SDS011;31365;48.858;8.530;2023-03-01T03:26:45;11.57;;;10.50;;
45650;SDS011;31365;48.858;8.530;2023-03-01T03:29:13;11.88;;;10.68;;
45650;SDS011;31365;48.858;8.530;2023-03-01T03:31:42;11.55;;;10.45;;
45650;SDS011;31365;48.858;8.530;2023-03-01T03:34:10;11.43;;;10.43;;
45650;SDS011;31365;48.858;8.530;2023-03-01T03:36:46;11.77;;;10.52;;
45650;SDS011;31365;48.858;8.530;2023-03-01T03:39:14;11.43;;;10.32;;
45650;SDS011;31365;48.858;8.530;2023-03-01T03:41:45;11.98;;;10.88;;
45650;SDS011;31365;48.858;8.530;2023-03-01T03:44:14;11.82;;;10.65;;
45650;SDS011;31365;48.858;8.530;2023-03-01T03:46:42;11.63;;;10.63;;
45650;SDS011;31365;48.858;8.530;2023-03-01T03:49:10;11.50;;;10.50;;
45650;SDS011;31365;48.858;8.530;2023-03-01T03:51:41;11.85;;;10.75;;
45650;SDS011;31365;48.858;8.530;2023-03-01T03:54:11;12.00;;;10.90;;
45650;SDS011;31365;48.858;8.530;2023-03-01T03:56:39;12.40;;;11.30;;
45650;SDS011;31365;48.858;8.530;2023-03-01T03:59:07;12.47;;;11.27;;
45650;SDS011;31365;48.858;8.530;2023-03-01T04:01:37;11.63;;;10.52;;
45650;SDS011;31365;48.858;8.530;2023-03-01T04:04:06;12.13;;;10.93;;
45650;SDS011;31365;48.858;8.530;2023-03-01T04:06:34;12.30;;;11.20;;
45650;SDS011;31365;48.858;8.530;2023-03-01T04:09:03;12.27;;;11.10;;
45650;SDS011;31365;48.858;8.530;2023-03-01T04:11:35;12.65;;;11.55;;
45650;SDS011;31365;48.858;8.530;2023-03-01T04:14:04;12.63;;;11.43;;
45650;SDS011;31365;48.858;8.530;2023-03-01T04:16:33;12.45;;;11.25;;
45650;SDS011;31365;48.858;8.530;2023-03-01T04:19:03;12.20;;;11.10;;
45650;SDS011;31365;48.858;8.530;2023-03-01T04:21:32;13.30;;;12.10;;
45650;SDS011;31365;48.858;8.530;2023-03-01T04:24:03;12.48;;;11.38;;
45650;SDS011;31365;48.858;8.530;2023-03-01T04:26:34;12.30;;;11.20;;
45650;SDS011;31365;48.858;8.530;2023-03-01T04:29:03;12.13;;;11.05;;
45650;SDS011;31365;48.858;8.530;2023-03-01T04:31:31;13.07;;;11.70;;
45650;SDS011;31365;48.858;8.530;2023-03-01T04:34:00;12.95;;;11.75;;
45650;SDS011;31365;48.858;8.530;2023-03-01T04:36:29;12.85;;;11.65;;
45650;SDS011;31365;48.858;8.530;2023-03-01T04:38:58;13.13;;;11.82;;
45650;SDS011;31365;48.858;8.530;2023-03-01T04:41:40;12.48;;;11.27;;
45650;SDS011;31365;48.858;8.530;2023-03-01T04:44:09;12.40;;;11.30;;
45650;SDS011;31365;48.858;8.530;2023-03-01T04:46:38;12.48;;;11.38;;
45650;SDS011;31365;48.858;8.530;2023-03-01T04:49:07;12.60;;;11.50;;
45650;SDS011;31365;48.858;8.530;2023-03-01T04:51:36;12.68;;;11.40;;
45650;SDS011;31365;48.858;8.530;2023-03-01T04:54:04;11.90;;;10.77;;
45650;SDS011;31365;48.858;8.530;2023-03-01T04:56:35;13.93;;;11.52;;
45650;SDS011;31365;48.858;8.530;2023-03-01T04:59:05;11.52;;;10.45;;
45650;SDS011;31365;48.858;8.530;2023-03-01T05:01:36;12.50;;;11.20;;
45650;SDS011;31365;48.858;8.530;2023-03-01T05:04:05;12.18;;;10.98;;
45650;SDS011;31365;48.858;8.530;2023-03-01T05:06:40;12.00;;;10.90;;
45650;SDS011;31365;48.858;8.530;2023-03-01T05:09:08;11.85;;;10.70;;
45650;SDS011;31365;48.858;8.530;2023-03-01T05:11:37;11.98;;;10.88;;
45650;SDS011;31365;48.858;8.530;2023-03-01T05:14:07;13.15;;;11.75;;
45650;SDS011;31365;48.858;8.530;2023-03-01T05:16:38;12.68;;;11.48;;
45650;SDS011;31365;48.858;8.530;2023-03-01T05:19:07;14.45;;;13.00;;
45650;SDS011;31365;48.858;8.530;2023-03-01T05:21:41;13.52;;;12.23;;
45650;SDS011;31365;48.858;8.530;2023-03-01T05:24:25;13.20;;;12.00;;
45650;SDS011;31365;48.858;8.530;2023-03-01T05:26:54;13.85;;;12.55;;
45650;SDS011;31365;48.858;8.530;2023-03-01T05:29:25;12.55;;;11.35;;
45650;SDS011;31365;48.858;8.530;2023-03-01T05:31:58;14.23;;;12.13;;
45650;SDS011;31365;48.858;8.530;2023-03-01T05:34:30;14.68;;;13.27;;
45650;SDS011;31365;48.858;8.530;2023-03-01T05:37:02;13.15;;;11.95;;
45650;SDS011;31365;48.858;8.530;2023-03-01T05:39:31;12.60;;;11.50;;
45650;SDS011;31365;48.858;8.530;2023-03-01T05:42:00;13.93;;;12.73;;
45650;SDS011;31365;48.858;8.530;2023-03-01T05:44:31;12.07;;;10.90;;
45650;SDS011;31365;48.858;8.530;2023-03-01T05:46:59;12.77;;;11.57;;
45650;SDS011;31365;48.858;8.530;2023-03-01T05:49:27;12.80;;;11.60;;
45650;SDS011;31365;48.858;8.530;2023-03-01T05:51:56;13.05;;;11.85;;
45650;SDS011;31365;48.858;8.530;2023-03-01T05:54:24;13.93;;;12.10;;
45650;SDS011;31365;48.858;8.530;2023-03-01T05:56:53;13.63;;;12.25;;
45650;SDS011;31365;48.858;8.530;2023-03-01T05:59:22;13.30;;;11.90;;
45650;SDS011;31365;48.858;8.530;2023-03-01T06:01:52;13.30;;;12.05;;
45650;SDS011;31365;48.858;8.530;2023-03-01T06:04:21;13.27;;;12.07;;
45650;SDS011;31365;48.858;8.530;2023-03-01T06:06:49;13.90;;;12.60;;
45650;SDS011;31365;48.858;8.530;2023-03-01T06:09:18;13.23;;;12.02;;
45650;SDS011;31365;48.858;8.530;2023-03-01T06:11:46;13.57;;;12.35;;
45650;SDS011;31365;48.858;8.530;2023-03-01T06:14:15;13.18;;;11.98;;
45650;SDS011;31365;48.858;8.530;2023-03-01T06:16:43;13.85;;;12.55;;
45650;SDS011;31365;48.858;8.530;2023-03-01T06:19:13;13.20;;;12.00;;
45650;SDS011;31365;48.858;8.530;2023-03-01T06:21:41;13.45;;;12.23;;
45650;SDS011;31365;48.858;8.530;2023-03-01T06:24:10;14.07;;;12.85;;
45650;SDS011;31365;48.858;8.530;2023-03-01T06:26:38;14.68;;;13.25;;
45650;SDS011;31365;48.858;8.530;2023-03-01T06:29:07;13.50;;;12.20;;
45650;SDS011;31365;48.858;8.530;2023-03-01T06:31:36;13.60;;;12.25;;
45650;SDS011;31365;48.858;8.530;2023-03-01T06:34:05;13.93;;;12.65;;
45650;SDS011;31365;48.858;8.530;2023-03-01T06:36:35;14.25;;;12.95;;
45650;SDS011;31365;48.858;8.530;2023-03-01T06:39:03;13.90;;;12.70;;
45650;SDS011;31365;48.858;8.530;2023-03-01T06:41:33;14.52;;;13.13;;
45650;SDS011;31365;48.858;8.530;2023-03-01T06:44:01;13.65;;;12.35;;
45650;SDS011;31365;48.858;8.530;2023-03-01T06:46:31;14.18;;;12.88;;
45650;SDS011;31365;48.858;8.530;2023-03-01T06:49:00;15.00;;;13.60;;
45650;SDS011;31365;48.858;8.530;2023-03-01T06:51:30;14.30;;;13.00;;
45650;SDS011;31365;48.858;8.530;2023-03-01T06:54:02;14.25;;;12.85;;
45650;SDS011;31365;48.858;8.530;2023-03-01T06:56:31;15.13;;;13.63;;
45650;SDS011;31365;48.858;8.530;2023-03-01T06:59:00;14.57;;;13.10;;
45650;SDS011;31365;48.858;8.530;2023-03-01T07:01:30;14.75;;;13.35;;
45650;SDS011;31365;48.858;8.530;2023-03-01T07:03:59;14.43;;;13.02;;
45650;SDS011;31365;48.858;8.530;2023-03-01T07:06:28;14.60;;;13.30;;
45650;SDS011;31365;48.858;8.530;2023-03-01T07:08:57;14.47;;;13.27;;
45650;SDS011;31365;48.858;8.530;2023-03-01T07:11:26;14.30;;;13.00;;
45650;SDS011;31365;48.858;8.530;2023-03-01T07:13:55;14.60;;;13.20;;
45650;SDS011;31365;48.858;8.530;2023-03-01T07:16:24;14.52;;;13.23;;
45650;SDS011;31365;48.858;8.530;2023-03-01T07:18:55;14.57;;;13.27;;
45650;SDS011;31365;48.858;8.530;2023-03-01T07:21:25;14.32;;;13.05;;
45650;SDS011;31365;48.858;8.530;2023-03-01T07:23:53;14.50;;;13.00;;
45650;SDS011;31365;48.858;8.530;2023-03-01T07:26:21;13.80;;;12.60;;
45650;SDS011;31365;48.858;8.530;2023-03-01T07:28:53;15.90;;;14.30;;
45650;SDS011;31365;48.858;8.530;2023-03-01T07:31:21;14.52;;;13.13;;
45650;SDS011;31365;48.858;8.530;2023-03-01T07:33:50;15.10;;;13.70;;
45650;SDS011;31365;48.858;8.530;2023-03-01T07:36:19;14.80;;;13.40;;
45650;SDS011;31365;48.858;8.530;2023-03-01T07:38:48;14.63;;;13.23;;
45650;SDS011;31365;48.858;8.530;2023-03-01T07:41:17;14.63;;;13.27;;
45650;SDS011;31365;48.858;8.530;2023-03-01T07:43:45;14.55;;;13.25;;
45650;SDS011;31365;48.858;8.530;2023-03-01T07:46:16;14.00;;;12.70;;
45650;SDS011;31365;48.858;8.530;2023-03-01T07:48:45;14.75;;;13.32;;
45650;SDS011;31365;48.858;8.530;2023-03-01T07:51:14;15.02;;;13.57;;
45650;SDS011;31365;48.858;8.530;2023-03-01T07:53:46;14.32;;;13.02;;
45650;SDS011;31365;48.858;8.530;2023-03-01T07:56:16;15.07;;;13.57;;
45650;SDS011;31365;48.858;8.530;2023-03-01T07:58:46;14.77;;;13.32;;
45650;SDS011;31365;48.858;8.530;2023-03-01T08:01:19;14.25;;;12.95;;
45650;SDS011;31365;48.858;8.530;2023-03-01T08:03:50;14.43;;;13.20;;
45650;SDS011;31365;48.858;8.530;2023-03-01T08:06:18;12.53;;;11.30;;
45650;SDS011;31365;48.858;8.530;2023-03-01T08:08:49;12.70;;;11.23;;
45650;SDS011;31365;48.858;8.530;2023-03-01T08:11:22;14.80;;;11.60;;
45650;SDS011;31365;48.858;8.530;2023-03-01T08:13:51;12.97;;;10.17;;
45650;SDS011;31365;48.858;8.530;2023-03-01T08:16:21;12.37;;;10.70;;
45650;SDS011;31365;48.858;8.530;2023-03-01T08:18:51;13.20;;;9.80;;
45650;SDS011;31365;48.858;8.530;2023-03-01T08:21:22;14.07;;;11.50;;
45650;SDS011;31365;48.858;8.530;2023-03-01T08:23:51;16.27;;;10.57;;
45650;SDS011;31365;48.858;8.530;2023-03-01T08:26:20;13.17;;;11.03;;
45650;SDS011;31365;48.858;8.530;2023-03-01T08:28:49;13.10;;;11.33;;
45650;SDS011;31365;48.858;8.530;2023-03-01T08:31:19;15.20;;;11.67;;
45650;SDS011;31365;48.858;8.530;2023-03-01T08:33:53;14.70;;;11.37;;
45650;SDS011;31365;48.858;8.530;2023-03-01T08:36:24;14.37;;;11.50;;
45650;SDS011;31365;48.858;8.530;2023-03-01T08:38:55;15.27;;;11.10;;
45650;SDS011;31365;48.858;8.530;2023-03-01T08:41:27;16.38;;;14.18;;
45650;SDS011;31365;48.858;8.530;2023-03-01T08:43:57;16.70;;;11.70;;
45650;SDS011;31365;48.858;8.530;2023-03-01T08:46:28;15.27;;;12.47;;
45650;SDS011;31365;48.858;8.530;2023-03-01T08:49:02;20.07;;;13.00;;
45650;SDS011;31365;48.858;8.530;2023-03-01T08:51:32;15.05;;;13.55;;
45650;SDS011;31365;48.858;8.530;2023-03-01T08:54:04;14.82;;;13.32;;
45650;SDS011;31365;48.858;8.530;2023-03-01T08:56:36;15.05;;;13.48;;
45650;SDS011;31365;48.858;8.530;2023-03-01T08:59:06;15.70;;;14.10;;
45650;SDS011;31365;48.858;8.530;2023-03-01T09:01:36;15.88;;;14.27;;
45650;SDS011;31365;48.858;8.530;2023-03-01T09:04:06;15.60;;;14.18;;
45650;SDS011;31365;48.858;8.530;2023-03-01T09:06:38;15.65;;;14.10;;
45650;SDS011;31365;48.858;8.530;2023-03-01T09:09:10;18.10;;;14.53;;
45650;SDS011;31365;48.858;8.530;2023-03-01T09:11:42;13.17;;;11.77;;
45650;SDS011;31365;48.858;8.530;2023-03-01T09:14:16;13.97;;;12.43;;
45650;SDS011;31365;48.858;8.530;2023-03-01T09:16:47;13.20;;;11.90;;
45650;SDS011;31365;48.858;8.530;2023-03-01T09:19:19;17.27;;;12.60;;
45650;SDS011;31365;48.858;8.530;2023-03-01T09:21:52;14.10;;;11.83;;
45650;SDS011;31365;48.858;8.530;2023-03-01T09:24:22;13.00;;;11.70;;
45650;SDS011;31365;48.858;8.530;2023-03-01T09:26:53;16.20;;;12.40;;
45650;SDS011;31365;48.858;8.530;2023-03-01T09:29:24;48.80;;;13.83;;
45650;SDS011;31365;48.858;8.530;2023-03-01T09:31:54;13.67;;;11.53;;
45650;SDS011;31365;48.858;8.530;2023-03-01T09:34:23;18.47;;;12.23;;
45650;SDS011;31365;48.858;8.530;2023-03-01T09:36:52;13.87;;;11.70;;
45650;SDS011;31365;48.858;8.530;2023-03-01T09:39:21;14.30;;;12.07;;
45650;SDS011;31365;48.858;8.530;2023-03-01T09:41:53;14.37;;;12.37;;
45650;SDS011;31365;48.858;8.530;2023-03-01T09:44:32;16.07;;;11.90;;
45650;SDS011;31365;48.858;8.530;2023-03-01T09:47:15;13.47;;;11.60;;
45650;SDS011;31365;48.858;8.530;2023-03-01T09:49:51;17.93;;;12.57;;
45650;SDS011;31365;48.858;8.530;2023-03-01T09:52:32;14.90;;;12.03;;
45650;SDS011;31365;48.858;8.530;2023-03-01T09:55:09;15.00;;;12.20;;
45650;SDS011;31365;48.858;8.530;2023-03-01T09:57:47;16.13;;;13.40;;
45650;SDS011;31365;48.858;8.530;2023-03-01T10:00:29;14.67;;;13.03;;
45650;SDS011;31365;48.858;8.530;2023-03-01T10:03:14;31.57;;;14.37;;
45650;SDS011;31365;48.858;8.530;2023-03-01T10:05:53;17.90;;;12.60;;
45650;SDS011;31365;48.858;8.530;2023-03-01T10:08:28;14.83;;;11.73;;
45650;SDS011;31365;48.858;8.530;2023-03-01T10:11:15;16.30;;;12.77;;
45650;SDS011;31365;48.858;8.530;2023-03-01T10:13:53;13.97;;;12.00;;
45650;SDS011;31365;48.858;8.530;2023-03-01T10:16:38;19.37;;;12.90;;
45650;SDS011;31365;48.858;8.530;2023-03-01T10:19:22;24.93;;;13.20;;
45650;SDS011;31365;48.858;8.530;2023-03-01T10:22:00;14.80;;;12.03;;
45650;SDS011;31365;48.858;8.530;2023-03-01T10:24:35;16.97;;;12.17;;
45650;SDS011;31365;48.858;8.530;2023-03-01T10:27:07;13.70;;;12.27;;
45650;SDS011;31365;48.858;8.530;2023-03-01T10:29:46;17.13;;;13.37;;
45650;SDS011;31365;48.858;8.530;2023-03-01T10:32:28;15.83;;;11.93;;
45650;SDS011;31365;48.858;8.530;2023-03-01T10:34:59;19.23;;;13.40;;
45650;SDS011;31365;48.858;8.530;2023-03-01T10:37:29;16.57;;;13.43;;
45650;SDS011;31365;48.858;8.530;2023-03-01T10:39:58;13.80;;;12.50;;
45650;SDS011;31365;48.858;8.530;2023-03-01T10:42:37;74.37;;;20.67;;
45650;SDS011;31365;48.858;8.530;2023-03-01T10:45:15;18.63;;;13.93;;
45650;SDS011;31365;48.858;8.530;2023-03-01T10:48:11;14.23;;;12.73;;
45650;SDS011;31365;48.858;8.530;2023-03-01T10:50:45;16.57;;;13.63;;
45650;SDS011;31365;48.858;8.530;2023-03-01T10:53:20;17.80;;;12.90;;
45650;SDS011;31365;48.858;8.530;2023-03-01T10:55:56;14.73;;;13.10;;
45650;SDS011;31365;48.858;8.530;2023-03-01T10:58:28;14.93;;;12.03;;
45650;SDS011;31365;48.858;8.530;2023-03-01T11:00:58;16.07;;;13.33;;
45650;SDS011;31365;48.858;8.530;2023-03-01T11:03:30;14.30;;;12.77;;
45650;SDS011;31365;48.858;8.530;2023-03-01T11:06:03;14.40;;;12.77;;
45650;SDS011;31365;48.858;8.530;2023-03-01T11:08:48;14.70;;;13.13;;
45650;SDS011;31365;48.858;8.530;2023-03-01T11:11:22;15.07;;;13.47;;
45650;SDS011;31365;48.858;8.530;2023-03-01T11:13:59;14.13;;;12.67;;
45650;SDS011;31365;48.858;8.530;2023-03-01T11:16:58;15.03;;;13.07;;
45650;SDS011;31365;48.858;8.530;2023-03-01T11:19:29;14.43;;;12.90;;
45650;SDS011;31365;48.858;8.530;2023-03-01T11:21:59;14.43;;;12.60;;
45650;SDS011;31365;48.858;8.530;2023-03-01T11:24:34;13.67;;;12.20;;
45650;SDS011;31365;48.858;8.530;2023-03-01T11:27:15;14.17;;;12.77;;
45650;SDS011;31365;48.858;8.530;2023-03-01T11:29:51;14.23;;;12.80;;
45650;SDS011;31365;48.858;8.530;2023-03-01T11:32:24;13.87;;;12.57;;
45650;SDS011;31365;48.858;8.530;2023-03-01T11:35:02;14.47;;;12.97;;
45650;SDS011;31365;48.858;8.530;2023-03-01T11:37:43;14.20;;;12.83;;
45650;SDS011;31365;48.858;8.530;2023-03-01T11:40:27;14.03;;;12.60;;
45650;SDS011;31365;48.858;8.530;2023-03-01T11:43:05;14.70;;;13.10;;
45650;SDS011;31365;48.858;8.530;2023-03-01T11:45:47;15.87;;;13.73;;
45650;SDS011;31365;48.858;8.530;2023-03-01T11:48:59;13.93;;;12.63;;
45650;SDS011;31365;48.858;8.530;2023-03-01T11:52:00;14.43;;;12.87;;
45650;SDS011;31365;48.858;8.530;2023-03-01T11:54:50;22.83;;;13.80;;
45650;SDS011;31365;48.858;8.530;2023-03-01T11:57:38;15.60;;;13.23;;
45650;SDS011;31365;48.858;8.530;2023-03-01T12:00:32;13.30;;;12.00;;
45650;SDS011;31365;48.858;8.530;2023-03-01T12:03:27;14.77;;;13.23;;
45650;SDS011;31365;48.858;8.530;2023-03-01T12:09:42;16.40;;;14.93;;
45650;SDS011;31365;48.858;8.530;2023-03-01T12:12:48;15.37;;;12.80;;
45650;SDS011;31365;48.858;8.530;2023-03-01T12:19:10;13.40;;;12.20;;
45650;SDS011;31365;48.858;8.530;2023-03-01T12:22:04;16.03;;;12.80;;
45650;SDS011;31365;48.858;8.530;2023-03-01T12:27:57;14.07;;;12.73;;
45650;SDS011;31365;48.858;8.530;2023-03-01T12:31:09;14.27;;;12.97;;
45650;SDS011;31365;48.858;8.530;2023-03-01T12:34:07;14.25;;;12.75;;
45650;SDS011;31365;48.858;8.530;2023-03-01T12:36:59;14.68;;;13.15;;
45650;SDS011;31365;48.858;8.530;2023-03-01T12:39:51;14.93;;;13.30;;
45650;SDS011;31365;48.858;8.530;2023-03-01T12:42:43;14.07;;;12.88;;
45650;SDS011;31365;48.858;8.530;2023-03-01T12:45:33;15.43;;;13.95;;
45650;SDS011;31365;48.858;8.530;2023-03-01T12:48:24;21.40;;;15.45;;
45650;SDS011;31365;48.858;8.530;2023-03-01T12:51:08;17.42;;;14.63;;
45650;SDS011;31365;48.858;8.530;2023-03-01T12:53:42;15.52;;;14.13;;
45650;SDS011;31365;48.858;8.530;2023-03-01T15:27:24;16.42;;;14.80;;
45650;SDS011;31365;48.858;8.530;2023-03-01T15:29:55;15.95;;;14.45;;
45650;SDS011;31365;48.858;8.530;2023-03-01T15:32:29;15.75;;;14.27;;
45650;SDS011;31365;48.858;8.530;2023-03-01T15:35:00;15.45;;;14.05;;
45650;SDS011;31365;48.858;8.530;2023-03-01T15:38:04;16.05;;;14.65;;
45650;SDS011;31365;48.858;8.530;2023-03-01T15:40:52;16.70;;;15.10;;
45650;SDS011;31365;48.858;8.530;2023-03-01T15:43:40;16.13;;;14.47;;
45650;SDS011;31365;48.858;8.530;2023-03-01T15:46:14;16.40;;;14.80;;
45650;SDS011;31365;48.858;8.530;2023-03-01T15:48:50;16.00;;;14.50;;
45650;SDS011;31365;48.858;8.530;2023-03-01T15:51:27;14.23;;;13.02;;
45650;SDS011;31365;48.858;8.530;2023-03-01T15:54:00;16.20;;;14.55;;
45650;SDS011;31365;48.858;8.530;2023-03-01T15:56:33;15.65;;;14.02;;
45650;SDS011;31365;48.858;8.530;2023-03-01T15:59:03;15.73;;;14.18;;
45650;SDS011;31365;48.858;8.530;2023-03-01T16:01:33;15.82;;;14.32;;
45650;SDS011;31365;48.858;8.530;2023-03-01T16:04:01;14.75;;;13.35;;
45650;SDS011;31365;48.858;8.530;2023-03-01T16:06:30;14.88;;;13.57;;
45650;SDS011;31365;48.858;8.530;2023-03-01T16:08:59;15.50;;;13.98;;
45650;SDS011;31365;48.858;8.530;2023-03-01T16:11:29;16.17;;;14.50;;
45650;SDS011;31365;48.858;8.530;2023-03-01T16:13:58;16.15;;;14.68;;
45650;SDS011;31365;48.858;8.530;2023-03-01T16:16:28;15.63;;;13.70;;
45650;SDS011;31365;48.858;8.530;2023-03-01T16:18:58;15.20;;;12.50;;
45650;SDS011;31365;48.858;8.530;2023-03-01T16:21:26;14.00;;;12.57;;
45650;SDS011;31365;48.858;8.530;2023-03-01T16:23:56;13.73;;;12.33;;
45650;SDS011;31365;48.858;8.530;2023-03-01T16:26:27;15.63;;;12.80;;
45650;SDS011;31365;48.858;8.530;2023-03-01T16:28:56;13.70;;;12.33;;
45650;SDS011;31365;48.858;8.530;2023-03-01T16:31:26;13.33;;;12.03;;
45650;SDS011;31365;48.858;8.530;2023-03-01T16:33:58;14.73;;;12.17;;
45650;SDS011;31365;48.858;8.530;2023-03-01T16:36:27;15.60;;;13.90;;
45650;SDS011;31365;48.858;8.530;2023-03-01T16:38:56;13.87;;;12.40;;
45650;SDS011;31365;48.858;8.530;2023-03-01T16:41:29;13.10;;;11.70;;
45650;SDS011;31365;48.858;8.530;2023-03-01T16:43:58;14.63;;;13.13;;
45650;SDS011;31365;48.858;8.530;2023-03-01T16:46:27;17.23;;;12.63;;
45650;SDS011;31365;48.858;8.530;2023-03-01T16:48:58;14.43;;;12.93;;
45650;SDS011;31365;48.858;8.530;2023-03-01T16:51:27;17.23;;;13.37;;
45650;SDS011;31365;48.858;8.530;2023-03-01T16:53:57;14.10;;;12.60;;
45650;SDS011;31365;48.858;8.530;2023-03-01T16:56:26;16.25;;;14.57;;
45650;SDS011;31365;48.858;8.530;2023-03-01T16:58:59;15.40;;;13.40;;
45650;SDS011;31365;48.858;8.530;2023-03-01T17:01:31;21.00;;;14.73;;
45650;SDS011;31365;48.858;8.530;2023-03-01T17:04:08;21.83;;;14.67;;
45650;SDS011;31365;48.858;8.530;2023-03-01T17:06:39;18.13;;;12.73;;
45650;SDS011;31365;48.858;8.530;2023-03-01T17:09:08;19.57;;;13.27;;
45650;SDS011;31365;48.858;8.530;2023-03-01T17:11:38;15.73;;;12.53;;
45650;SDS011;31365;48.858;8.530;2023-03-01T17:14:07;13.73;;;11.53;;
45650;SDS011;31365;48.858;8.530;2023-03-01T17:16:36;14.17;;;11.70;;
45650;SDS011;31365;48.858;8.530;2023-03-01T17:19:06;19.43;;;13.07;;
45650;SDS011;31365;48.858;8.530;2023-03-01T17:21:35;20.07;;;13.40;;
45650;SDS011;31365;48.858;8.530;2023-03-01T17:24:04;16.10;;;12.63;;
45650;SDS011;31365;48.858;8.530;2023-03-01T17:26:33;19.00;;;15.40;;
45650;SDS011;31365;48.858;8.530;2023-03-01T17:29:02;17.00;;;13.50;;
45650;SDS011;31365;48.858;8.530;2023-03-01T17:31:32;16.10;;;13.50;;
45650;SDS011;31365;48.858;8.530;2023-03-01T17:34:01;23.87;;;16.77;;
45650;SDS011;31365;48.858;8.530;2023-03-01T17:36:31;19.03;;;14.47;;
45650;SDS011;31365;48.858;8.530;2023-03-01T17:39:07;17.17;;;14.77;;
45650;SDS011;31365;48.858;8.530;2023-03-01T17:41:36;17.30;;;15.27;;